<?xml version="1.0" encoding="UTF-8" standalone="no" ?>
<gpx xmlns="http://www.topografix.com/GPX/1/1" xmlns:xsi="http://www.w3.org/2001/XMLSchema-instance" xsi:schemaLocation="http://www.topografix.com/GPX/1/1 http://www.topografix.com/GPX/1/1/gpx.xsd" version="1.1" creator="VisuGPX - https://www.visugpx.com">
  <metadata>
    <name>Le Garlaban</name>
    <desc><![CDATA[Sans difficulté.]]></desc>
  </metadata>
  <trk>
    <name><![CDATA[Le Garlaban_1]]></name>
    <trkseg>
      <trkpt lat="43.30909" lon="5.54529">
        <ele>197.300003</ele>
        <time>2016-06-08T06:41:10Z</time>
      </trkpt>
      <trkpt lat="43.30909" lon="5.54532">
        <ele>195.600006</ele>
        <time>2016-06-08T06:41:11Z</time>
      </trkpt>
      <trkpt lat="43.3089" lon="5.54558">
        <ele>198.8</ele>
        <time>2016-06-08T06:42:16Z</time>
      </trkpt>
      <trkpt lat="43.3089" lon="5.54559">
        <ele>199</ele>
        <time>2016-06-08T06:42:17Z</time>
      </trkpt>
      <trkpt lat="43.30894" lon="5.54602">
        <ele>187.8</ele>
        <time>2016-06-08T06:42:53Z</time>
      </trkpt>
      <trkpt lat="43.30898" lon="5.54626">
        <ele>212.6</ele>
        <time>2016-06-08T06:43:36Z</time>
      </trkpt>
      <trkpt lat="43.30898" lon="5.54626">
        <ele>213.3</ele>
        <time>2016-06-08T06:43:37Z</time>
      </trkpt>
      <trkpt lat="43.3093" lon="5.54641">
        <ele>208.1</ele>
        <time>2016-06-08T06:44:09Z</time>
      </trkpt>
      <trkpt lat="43.30942" lon="5.54658">
        <ele>209.6</ele>
        <time>2016-06-08T06:44:24Z</time>
      </trkpt>
      <trkpt lat="43.30954" lon="5.54677">
        <ele>206.8</ele>
        <time>2016-06-08T06:44:41Z</time>
      </trkpt>
      <trkpt lat="43.30955" lon="5.54678">
        <ele>206.5</ele>
        <time>2016-06-08T06:44:42Z</time>
      </trkpt>
      <trkpt lat="43.30973" lon="5.54716">
        <ele>207.1</ele>
        <time>2016-06-08T06:45:10Z</time>
      </trkpt>
      <trkpt lat="43.30989" lon="5.54727">
        <ele>206</ele>
        <time>2016-06-08T06:45:27Z</time>
      </trkpt>
      <trkpt lat="43.31006" lon="5.54725">
        <ele>207.8</ele>
        <time>2016-06-08T06:45:43Z</time>
      </trkpt>
      <trkpt lat="43.31008" lon="5.54725">
        <ele>208</ele>
        <time>2016-06-08T06:45:44Z</time>
      </trkpt>
      <trkpt lat="43.31039" lon="5.54738">
        <ele>203</ele>
        <time>2016-06-08T06:46:13Z</time>
      </trkpt>
      <trkpt lat="43.31055" lon="5.54747">
        <ele>198.3</ele>
        <time>2016-06-08T06:46:29Z</time>
      </trkpt>
      <trkpt lat="43.31071" lon="5.54757">
        <ele>194.1</ele>
        <time>2016-06-08T06:46:44Z</time>
      </trkpt>
      <trkpt lat="43.31073" lon="5.54757">
        <ele>194.6</ele>
        <time>2016-06-08T06:46:45Z</time>
      </trkpt>
      <trkpt lat="43.31104" lon="5.54763">
        <ele>197.6</ele>
        <time>2016-06-08T06:47:14Z</time>
      </trkpt>
      <trkpt lat="43.3112" lon="5.54762">
        <ele>203.3</ele>
        <time>2016-06-08T06:47:24Z</time>
      </trkpt>
      <trkpt lat="43.31137" lon="5.54756">
        <ele>207.6</ele>
        <time>2016-06-08T06:47:37Z</time>
      </trkpt>
      <trkpt lat="43.31151" lon="5.54742">
        <ele>205.1</ele>
        <time>2016-06-08T06:47:54Z</time>
      </trkpt>
      <trkpt lat="43.31152" lon="5.54741">
        <ele>205.1</ele>
        <time>2016-06-08T06:47:55Z</time>
      </trkpt>
      <trkpt lat="43.3118" lon="5.54719">
        <ele>203.3</ele>
        <time>2016-06-08T06:48:23Z</time>
      </trkpt>
      <trkpt lat="43.31194" lon="5.54709">
        <ele>203.1</ele>
        <time>2016-06-08T06:48:36Z</time>
      </trkpt>
      <trkpt lat="43.31207" lon="5.54695">
        <ele>207.1</ele>
        <time>2016-06-08T06:48:51Z</time>
      </trkpt>
      <trkpt lat="43.31222" lon="5.54681">
        <ele>211.8</ele>
        <time>2016-06-08T06:49:04Z</time>
      </trkpt>
      <trkpt lat="43.31223" lon="5.5468">
        <ele>211.6</ele>
        <time>2016-06-08T06:49:05Z</time>
      </trkpt>
      <trkpt lat="43.31251" lon="5.54664">
        <ele>202.3</ele>
        <time>2016-06-08T06:49:43Z</time>
      </trkpt>
      <trkpt lat="43.31261" lon="5.54643">
        <ele>197.8</ele>
        <time>2016-06-08T06:49:57Z</time>
      </trkpt>
      <trkpt lat="43.31265" lon="5.5462">
        <ele>201.3</ele>
        <time>2016-06-08T06:50:10Z</time>
      </trkpt>
      <trkpt lat="43.31265" lon="5.54619">
        <ele>201.8</ele>
        <time>2016-06-08T06:50:11Z</time>
      </trkpt>
      <trkpt lat="43.31284" lon="5.54586">
        <ele>205.3</ele>
        <time>2016-06-08T06:50:39Z</time>
      </trkpt>
      <trkpt lat="43.31302" lon="5.54584">
        <ele>203.5</ele>
        <time>2016-06-08T06:50:55Z</time>
      </trkpt>
      <trkpt lat="43.31319" lon="5.54588">
        <ele>208.3</ele>
        <time>2016-06-08T06:51:16Z</time>
      </trkpt>
      <trkpt lat="43.31321" lon="5.54588">
        <ele>208.3</ele>
        <time>2016-06-08T06:51:17Z</time>
      </trkpt>
      <trkpt lat="43.31353" lon="5.54597">
        <ele>210.1</ele>
        <time>2016-06-08T06:51:47Z</time>
      </trkpt>
      <trkpt lat="43.3137" lon="5.54603">
        <ele>212</ele>
        <time>2016-06-08T06:52:05Z</time>
      </trkpt>
      <trkpt lat="43.31387" lon="5.54605">
        <ele>213.3</ele>
        <time>2016-06-08T06:52:18Z</time>
      </trkpt>
      <trkpt lat="43.31389" lon="5.54605">
        <ele>213.1</ele>
        <time>2016-06-08T06:52:19Z</time>
      </trkpt>
      <trkpt lat="43.31421" lon="5.54616">
        <ele>220</ele>
        <time>2016-06-08T06:52:56Z</time>
      </trkpt>
      <trkpt lat="43.3143" lon="5.54595">
        <ele>217.5</ele>
        <time>2016-06-08T06:53:15Z</time>
      </trkpt>
      <trkpt lat="43.31426" lon="5.54571">
        <ele>220</ele>
        <time>2016-06-08T06:53:32Z</time>
      </trkpt>
      <trkpt lat="43.31426" lon="5.5457">
        <ele>219.6</ele>
        <time>2016-06-08T06:53:33Z</time>
      </trkpt>
      <trkpt lat="43.31422" lon="5.54547">
        <ele>228.3</ele>
        <time>2016-06-08T06:56:52Z</time>
      </trkpt>
      <trkpt lat="43.31413" lon="5.54501">
        <ele>224.8</ele>
        <time>2016-06-08T06:57:47Z</time>
      </trkpt>
      <trkpt lat="43.31411" lon="5.54477">
        <ele>227.8</ele>
        <time>2016-06-08T06:58:15Z</time>
      </trkpt>
      <trkpt lat="43.31411" lon="5.54476">
        <ele>228.1</ele>
        <time>2016-06-08T06:58:16Z</time>
      </trkpt>
      <trkpt lat="43.31412" lon="5.5443">
        <ele>234.1</ele>
        <time>2016-06-08T06:59:23Z</time>
      </trkpt>
      <trkpt lat="43.31412" lon="5.54429">
        <ele>233.8</ele>
        <time>2016-06-08T06:59:24Z</time>
      </trkpt>
      <trkpt lat="43.3144" lon="5.54403">
        <ele>234.1</ele>
        <time>2016-06-08T07:00:08Z</time>
      </trkpt>
      <trkpt lat="43.31456" lon="5.54393">
        <ele>239.6</ele>
        <time>2016-06-08T07:00:29Z</time>
      </trkpt>
      <trkpt lat="43.31457" lon="5.54393">
        <ele>239.8</ele>
        <time>2016-06-08T07:00:30Z</time>
      </trkpt>
      <trkpt lat="43.3149" lon="5.5438">
        <ele>242.5</ele>
        <time>2016-06-08T07:01:15Z</time>
      </trkpt>
      <trkpt lat="43.31507" lon="5.54376">
        <ele>243.3</ele>
        <time>2016-06-08T07:01:33Z</time>
      </trkpt>
      <trkpt lat="43.31508" lon="5.54376">
        <ele>243.3</ele>
        <time>2016-06-08T07:01:34Z</time>
      </trkpt>
      <trkpt lat="43.31533" lon="5.54349">
        <ele>243</ele>
        <time>2016-06-08T07:02:12Z</time>
      </trkpt>
      <trkpt lat="43.31525" lon="5.54328">
        <ele>245</ele>
        <time>2016-06-08T07:02:28Z</time>
      </trkpt>
      <trkpt lat="43.3153" lon="5.54304">
        <ele>244.6</ele>
        <time>2016-06-08T07:02:45Z</time>
      </trkpt>
      <trkpt lat="43.3153" lon="5.54302">
        <ele>245</ele>
        <time>2016-06-08T07:02:46Z</time>
      </trkpt>
      <trkpt lat="43.3156" lon="5.54279">
        <ele>248.6</ele>
        <time>2016-06-08T07:03:18Z</time>
      </trkpt>
      <trkpt lat="43.31575" lon="5.54269">
        <ele>249.8</ele>
        <time>2016-06-08T07:03:35Z</time>
      </trkpt>
      <trkpt lat="43.31586" lon="5.5425">
        <ele>249.5</ele>
        <time>2016-06-08T07:03:51Z</time>
      </trkpt>
      <trkpt lat="43.31586" lon="5.54248">
        <ele>249.6</ele>
        <time>2016-06-08T07:03:52Z</time>
      </trkpt>
      <trkpt lat="43.31594" lon="5.54203">
        <ele>250.8</ele>
        <time>2016-06-08T07:04:22Z</time>
      </trkpt>
      <trkpt lat="43.31605" lon="5.54183">
        <ele>249.6</ele>
        <time>2016-06-08T07:04:39Z</time>
      </trkpt>
      <trkpt lat="43.31617" lon="5.54167">
        <ele>249.3</ele>
        <time>2016-06-08T07:04:54Z</time>
      </trkpt>
      <trkpt lat="43.31618" lon="5.54166">
        <ele>249.3</ele>
        <time>2016-06-08T07:04:55Z</time>
      </trkpt>
      <trkpt lat="43.31634" lon="5.54126">
        <ele>250.8</ele>
        <time>2016-06-08T07:05:45Z</time>
      </trkpt>
      <trkpt lat="43.31641" lon="5.54103">
        <ele>251</ele>
        <time>2016-06-08T07:06:01Z</time>
      </trkpt>
      <trkpt lat="43.31641" lon="5.54102">
        <ele>251</ele>
        <time>2016-06-08T07:06:02Z</time>
      </trkpt>
      <trkpt lat="43.31656" lon="5.5406">
        <ele>250.5</ele>
        <time>2016-06-08T07:06:31Z</time>
      </trkpt>
      <trkpt lat="43.31656" lon="5.54036">
        <ele>250.3</ele>
        <time>2016-06-08T07:06:47Z</time>
      </trkpt>
      <trkpt lat="43.31658" lon="5.54012">
        <ele>247.3</ele>
        <time>2016-06-08T07:07:04Z</time>
      </trkpt>
      <trkpt lat="43.31657" lon="5.54011">
        <ele>247.3</ele>
        <time>2016-06-08T07:07:05Z</time>
      </trkpt>
      <trkpt lat="43.31653" lon="5.53964">
        <ele>243.3</ele>
        <time>2016-06-08T07:07:38Z</time>
      </trkpt>
      <trkpt lat="43.31653" lon="5.53939">
        <ele>242.1</ele>
        <time>2016-06-08T07:07:55Z</time>
      </trkpt>
      <trkpt lat="43.3166" lon="5.53916">
        <ele>243.5</ele>
        <time>2016-06-08T07:08:10Z</time>
      </trkpt>
      <trkpt lat="43.31661" lon="5.53915">
        <ele>243.6</ele>
        <time>2016-06-08T07:08:11Z</time>
      </trkpt>
      <trkpt lat="43.31674" lon="5.53872">
        <ele>245.3</ele>
        <time>2016-06-08T07:08:39Z</time>
      </trkpt>
      <trkpt lat="43.31682" lon="5.53851">
        <ele>243.8</ele>
        <time>2016-06-08T07:08:53Z</time>
      </trkpt>
      <trkpt lat="43.31688" lon="5.53828">
        <ele>244.1</ele>
        <time>2016-06-08T07:09:07Z</time>
      </trkpt>
      <trkpt lat="43.31695" lon="5.53806">
        <ele>247.1</ele>
        <time>2016-06-08T07:09:23Z</time>
      </trkpt>
      <trkpt lat="43.31695" lon="5.53805">
        <ele>247.1</ele>
        <time>2016-06-08T07:09:24Z</time>
      </trkpt>
      <trkpt lat="43.31709" lon="5.53763">
        <ele>250.1</ele>
        <time>2016-06-08T07:09:57Z</time>
      </trkpt>
      <trkpt lat="43.31714" lon="5.53741">
        <ele>250.6</ele>
        <time>2016-06-08T07:10:13Z</time>
      </trkpt>
      <trkpt lat="43.31723" lon="5.5372">
        <ele>252.3</ele>
        <time>2016-06-08T07:10:32Z</time>
      </trkpt>
      <trkpt lat="43.31724" lon="5.53719">
        <ele>252.5</ele>
        <time>2016-06-08T07:10:33Z</time>
      </trkpt>
      <trkpt lat="43.31756" lon="5.53707">
        <ele>256.1</ele>
        <time>2016-06-08T07:11:08Z</time>
      </trkpt>
      <trkpt lat="43.31774" lon="5.53712">
        <ele>259.6</ele>
        <time>2016-06-08T07:11:25Z</time>
      </trkpt>
      <trkpt lat="43.31789" lon="5.53725">
        <ele>262.2</ele>
        <time>2016-06-08T07:11:43Z</time>
      </trkpt>
      <trkpt lat="43.31789" lon="5.53726">
        <ele>262.2</ele>
        <time>2016-06-08T07:11:44Z</time>
      </trkpt>
      <trkpt lat="43.31819" lon="5.53734">
        <ele>263.5</ele>
        <time>2016-06-08T07:12:22Z</time>
      </trkpt>
      <trkpt lat="43.31821" lon="5.5371">
        <ele>253.6</ele>
        <time>2016-06-08T07:12:39Z</time>
      </trkpt>
      <trkpt lat="43.31816" lon="5.53687">
        <ele>255.3</ele>
        <time>2016-06-08T07:12:54Z</time>
      </trkpt>
      <trkpt lat="43.31815" lon="5.53686">
        <ele>255.5</ele>
        <time>2016-06-08T07:12:55Z</time>
      </trkpt>
      <trkpt lat="43.31801" lon="5.53644">
        <ele>260.6</ele>
        <time>2016-06-08T07:13:23Z</time>
      </trkpt>
      <trkpt lat="43.31792" lon="5.53623">
        <ele>260.8</ele>
        <time>2016-06-08T07:13:38Z</time>
      </trkpt>
      <trkpt lat="43.31786" lon="5.53601">
        <ele>261.7</ele>
        <time>2016-06-08T07:13:53Z</time>
      </trkpt>
      <trkpt lat="43.31782" lon="5.53577">
        <ele>262.2</ele>
        <time>2016-06-08T07:14:08Z</time>
      </trkpt>
      <trkpt lat="43.31782" lon="5.53575">
        <ele>262.2</ele>
        <time>2016-06-08T07:14:09Z</time>
      </trkpt>
      <trkpt lat="43.31778" lon="5.53529">
        <ele>263.7</ele>
        <time>2016-06-08T07:14:37Z</time>
      </trkpt>
      <trkpt lat="43.3178" lon="5.53505">
        <ele>264.7</ele>
        <time>2016-06-08T07:14:52Z</time>
      </trkpt>
      <trkpt lat="43.31781" lon="5.53483">
        <ele>263.7</ele>
        <time>2016-06-08T07:15:06Z</time>
      </trkpt>
      <trkpt lat="43.31783" lon="5.53458">
        <ele>265.2</ele>
        <time>2016-06-08T07:15:20Z</time>
      </trkpt>
      <trkpt lat="43.31783" lon="5.53457">
        <ele>265.6</ele>
        <time>2016-06-08T07:15:21Z</time>
      </trkpt>
      <trkpt lat="43.3179" lon="5.53414">
        <ele>262.7</ele>
        <time>2016-06-08T07:15:51Z</time>
      </trkpt>
      <trkpt lat="43.31786" lon="5.53391">
        <ele>264.3</ele>
        <time>2016-06-08T07:16:06Z</time>
      </trkpt>
      <trkpt lat="43.31786" lon="5.53367">
        <ele>266.3</ele>
        <time>2016-06-08T07:16:22Z</time>
      </trkpt>
      <trkpt lat="43.31786" lon="5.53365">
        <ele>266.1</ele>
        <time>2016-06-08T07:16:23Z</time>
      </trkpt>
      <trkpt lat="43.31789" lon="5.53318">
        <ele>269.6</ele>
        <time>2016-06-08T07:16:56Z</time>
      </trkpt>
      <trkpt lat="43.31791" lon="5.53294">
        <ele>268.5</ele>
        <time>2016-06-08T07:17:15Z</time>
      </trkpt>
      <trkpt lat="43.31794" lon="5.5327">
        <ele>269.6</ele>
        <time>2016-06-08T07:17:35Z</time>
      </trkpt>
      <trkpt lat="43.31794" lon="5.53269">
        <ele>269.7</ele>
        <time>2016-06-08T07:17:36Z</time>
      </trkpt>
      <trkpt lat="43.31803" lon="5.53224">
        <ele>272.7</ele>
        <time>2016-06-08T07:18:12Z</time>
      </trkpt>
      <trkpt lat="43.31808" lon="5.53201">
        <ele>276.7</ele>
        <time>2016-06-08T07:18:32Z</time>
      </trkpt>
      <trkpt lat="43.31816" lon="5.53178">
        <ele>279.2</ele>
        <time>2016-06-08T07:18:54Z</time>
      </trkpt>
      <trkpt lat="43.31816" lon="5.53177">
        <ele>279.2</ele>
        <time>2016-06-08T07:18:55Z</time>
      </trkpt>
      <trkpt lat="43.31842" lon="5.53149">
        <ele>286.7</ele>
        <time>2016-06-08T07:22:18Z</time>
      </trkpt>
      <trkpt lat="43.31842" lon="5.53149">
        <ele>286.7</ele>
        <time>2016-06-08T07:22:19Z</time>
      </trkpt>
      <trkpt lat="43.31857" lon="5.53137">
        <ele>296.3</ele>
        <time>2016-06-08T07:24:06Z</time>
      </trkpt>
      <trkpt lat="43.31869" lon="5.53093">
        <ele>296.6</ele>
        <time>2016-06-08T07:24:42Z</time>
      </trkpt>
      <trkpt lat="43.31878" lon="5.53074">
        <ele>296.8</ele>
        <time>2016-06-08T07:24:59Z</time>
      </trkpt>
      <trkpt lat="43.3189" lon="5.53056">
        <ele>300.3</ele>
        <time>2016-06-08T07:25:18Z</time>
      </trkpt>
      <trkpt lat="43.31891" lon="5.53055">
        <ele>300.2</ele>
        <time>2016-06-08T07:25:19Z</time>
      </trkpt>
      <trkpt lat="43.31923" lon="5.53051">
        <ele>307</ele>
        <time>2016-06-08T07:25:54Z</time>
      </trkpt>
      <trkpt lat="43.31938" lon="5.53063">
        <ele>309</ele>
        <time>2016-06-08T07:26:10Z</time>
      </trkpt>
      <trkpt lat="43.31954" lon="5.53072">
        <ele>305</ele>
        <time>2016-06-08T07:27:01Z</time>
      </trkpt>
      <trkpt lat="43.31955" lon="5.53071">
        <ele>305.1</ele>
        <time>2016-06-08T07:27:02Z</time>
      </trkpt>
      <trkpt lat="43.31981" lon="5.53042">
        <ele>312.1</ele>
        <time>2016-06-08T07:27:51Z</time>
      </trkpt>
      <trkpt lat="43.31997" lon="5.53048">
        <ele>316</ele>
        <time>2016-06-08T07:28:09Z</time>
      </trkpt>
      <trkpt lat="43.31998" lon="5.53049">
        <ele>316.2</ele>
        <time>2016-06-08T07:28:10Z</time>
      </trkpt>
      <trkpt lat="43.32032" lon="5.53055">
        <ele>323.2</ele>
        <time>2016-06-08T07:28:49Z</time>
      </trkpt>
      <trkpt lat="43.32047" lon="5.53044">
        <ele>322.8</ele>
        <time>2016-06-08T07:29:07Z</time>
      </trkpt>
      <trkpt lat="43.32062" lon="5.53029">
        <ele>323.2</ele>
        <time>2016-06-08T07:29:25Z</time>
      </trkpt>
      <trkpt lat="43.32062" lon="5.53028">
        <ele>323.1</ele>
        <time>2016-06-08T07:29:26Z</time>
      </trkpt>
      <trkpt lat="43.3208" lon="5.5299">
        <ele>322</ele>
        <time>2016-06-08T07:29:56Z</time>
      </trkpt>
      <trkpt lat="43.32089" lon="5.5297">
        <ele>318.7</ele>
        <time>2016-06-08T07:30:13Z</time>
      </trkpt>
      <trkpt lat="43.32102" lon="5.52954">
        <ele>312.7</ele>
        <time>2016-06-08T07:30:33Z</time>
      </trkpt>
      <trkpt lat="43.32103" lon="5.52953">
        <ele>312.3</ele>
        <time>2016-06-08T07:30:34Z</time>
      </trkpt>
      <trkpt lat="43.3213" lon="5.52923">
        <ele>326.7</ele>
        <time>2016-06-08T07:33:10Z</time>
      </trkpt>
      <trkpt lat="43.3213" lon="5.52923">
        <ele>326.5</ele>
        <time>2016-06-08T07:33:11Z</time>
      </trkpt>
      <trkpt lat="43.32158" lon="5.52899">
        <ele>315.8</ele>
        <time>2016-06-08T07:33:47Z</time>
      </trkpt>
      <trkpt lat="43.32174" lon="5.52888">
        <ele>316</ele>
        <time>2016-06-08T07:34:01Z</time>
      </trkpt>
      <trkpt lat="43.32191" lon="5.52883">
        <ele>316</ele>
        <time>2016-06-08T07:34:18Z</time>
      </trkpt>
      <trkpt lat="43.32192" lon="5.52883">
        <ele>316.2</ele>
        <time>2016-06-08T07:34:19Z</time>
      </trkpt>
      <trkpt lat="43.32226" lon="5.52884">
        <ele>316.7</ele>
        <time>2016-06-08T07:34:50Z</time>
      </trkpt>
      <trkpt lat="43.32236" lon="5.52866">
        <ele>317.1</ele>
        <time>2016-06-08T07:35:06Z</time>
      </trkpt>
      <trkpt lat="43.32239" lon="5.52842">
        <ele>317.8</ele>
        <time>2016-06-08T07:35:22Z</time>
      </trkpt>
      <trkpt lat="43.32239" lon="5.52841">
        <ele>317.7</ele>
        <time>2016-06-08T07:35:23Z</time>
      </trkpt>
      <trkpt lat="43.32263" lon="5.52807">
        <ele>319.2</ele>
        <time>2016-06-08T07:35:57Z</time>
      </trkpt>
      <trkpt lat="43.32279" lon="5.52797">
        <ele>318.6</ele>
        <time>2016-06-08T07:36:18Z</time>
      </trkpt>
      <trkpt lat="43.32297" lon="5.52793">
        <ele>323.2</ele>
        <time>2016-06-08T07:36:37Z</time>
      </trkpt>
      <trkpt lat="43.32297" lon="5.52793">
        <ele>323.8</ele>
        <time>2016-06-08T07:36:38Z</time>
      </trkpt>
      <trkpt lat="43.32326" lon="5.52769">
        <ele>328.7</ele>
        <time>2016-06-08T07:37:11Z</time>
      </trkpt>
      <trkpt lat="43.32341" lon="5.52757">
        <ele>331</ele>
        <time>2016-06-08T07:37:29Z</time>
      </trkpt>
      <trkpt lat="43.32359" lon="5.52755">
        <ele>333.8</ele>
        <time>2016-06-08T07:37:50Z</time>
      </trkpt>
      <trkpt lat="43.32359" lon="5.52755">
        <ele>334</ele>
        <time>2016-06-08T07:37:51Z</time>
      </trkpt>
      <trkpt lat="43.3237" lon="5.528">
        <ele>338.8</ele>
        <time>2016-06-08T07:38:57Z</time>
      </trkpt>
      <trkpt lat="43.3237" lon="5.52802">
        <ele>338.8</ele>
        <time>2016-06-08T07:38:58Z</time>
      </trkpt>
      <trkpt lat="43.32399" lon="5.52825">
        <ele>344</ele>
        <time>2016-06-08T07:39:33Z</time>
      </trkpt>
      <trkpt lat="43.32416" lon="5.5283">
        <ele>345.2</ele>
        <time>2016-06-08T07:39:51Z</time>
      </trkpt>
      <trkpt lat="43.32433" lon="5.52835">
        <ele>348.7</ele>
        <time>2016-06-08T07:40:09Z</time>
      </trkpt>
      <trkpt lat="43.32434" lon="5.52835">
        <ele>348.8</ele>
        <time>2016-06-08T07:40:10Z</time>
      </trkpt>
      <trkpt lat="43.32468" lon="5.52836">
        <ele>346.6</ele>
        <time>2016-06-08T07:40:43Z</time>
      </trkpt>
      <trkpt lat="43.32466" lon="5.5286">
        <ele>350.2</ele>
        <time>2016-06-08T07:41:07Z</time>
      </trkpt>
      <trkpt lat="43.32456" lon="5.52878">
        <ele>352.7</ele>
        <time>2016-06-08T07:41:23Z</time>
      </trkpt>
      <trkpt lat="43.32455" lon="5.5288">
        <ele>353.1</ele>
        <time>2016-06-08T07:41:24Z</time>
      </trkpt>
      <trkpt lat="43.32438" lon="5.5292">
        <ele>353.6</ele>
        <time>2016-06-08T07:41:56Z</time>
      </trkpt>
      <trkpt lat="43.32427" lon="5.52939">
        <ele>355.7</ele>
        <time>2016-06-08T07:42:12Z</time>
      </trkpt>
      <trkpt lat="43.32417" lon="5.5296">
        <ele>356.8</ele>
        <time>2016-06-08T07:42:28Z</time>
      </trkpt>
      <trkpt lat="43.32416" lon="5.52961">
        <ele>357.2</ele>
        <time>2016-06-08T07:42:29Z</time>
      </trkpt>
      <trkpt lat="43.32393" lon="5.52996">
        <ele>360.3</ele>
        <time>2016-06-08T07:43:03Z</time>
      </trkpt>
      <trkpt lat="43.3238" lon="5.53011">
        <ele>362.7</ele>
        <time>2016-06-08T07:43:19Z</time>
      </trkpt>
      <trkpt lat="43.32365" lon="5.53025">
        <ele>363</ele>
        <time>2016-06-08T07:43:36Z</time>
      </trkpt>
      <trkpt lat="43.32365" lon="5.53026">
        <ele>363</ele>
        <time>2016-06-08T07:43:37Z</time>
      </trkpt>
      <trkpt lat="43.32335" lon="5.53048">
        <ele>363.7</ele>
        <time>2016-06-08T07:44:08Z</time>
      </trkpt>
      <trkpt lat="43.32324" lon="5.53068">
        <ele>363.7</ele>
        <time>2016-06-08T07:44:26Z</time>
      </trkpt>
      <trkpt lat="43.32332" lon="5.53089">
        <ele>367.2</ele>
        <time>2016-06-08T07:44:47Z</time>
      </trkpt>
      <trkpt lat="43.32333" lon="5.5309">
        <ele>367.2</ele>
        <time>2016-06-08T07:44:48Z</time>
      </trkpt>
      <trkpt lat="43.32366" lon="5.53104">
        <ele>377.5</ele>
        <time>2016-06-08T07:45:28Z</time>
      </trkpt>
      <trkpt lat="43.32383" lon="5.53111">
        <ele>384.2</ele>
        <time>2016-06-08T07:45:49Z</time>
      </trkpt>
      <trkpt lat="43.32384" lon="5.53112">
        <ele>384.7</ele>
        <time>2016-06-08T07:45:50Z</time>
      </trkpt>
      <trkpt lat="43.32415" lon="5.53128">
        <ele>388.8</ele>
        <time>2016-06-08T07:46:29Z</time>
      </trkpt>
      <trkpt lat="43.32432" lon="5.53135">
        <ele>393.2</ele>
        <time>2016-06-08T07:46:47Z</time>
      </trkpt>
      <trkpt lat="43.32448" lon="5.53142">
        <ele>395.5</ele>
        <time>2016-06-08T07:47:05Z</time>
      </trkpt>
      <trkpt lat="43.32449" lon="5.53143">
        <ele>395.6</ele>
        <time>2016-06-08T07:47:06Z</time>
      </trkpt>
      <trkpt lat="43.32482" lon="5.53155">
        <ele>402.7</ele>
        <time>2016-06-08T07:47:41Z</time>
      </trkpt>
      <trkpt lat="43.32499" lon="5.53157">
        <ele>401.8</ele>
        <time>2016-06-08T07:47:58Z</time>
      </trkpt>
      <trkpt lat="43.32517" lon="5.53156">
        <ele>401.7</ele>
        <time>2016-06-08T07:48:16Z</time>
      </trkpt>
      <trkpt lat="43.32518" lon="5.53156">
        <ele>402</ele>
        <time>2016-06-08T07:48:17Z</time>
      </trkpt>
      <trkpt lat="43.32552" lon="5.53157">
        <ele>400.5</ele>
        <time>2016-06-08T07:53:14Z</time>
      </trkpt>
      <trkpt lat="43.32552" lon="5.53158">
        <ele>400.7</ele>
        <time>2016-06-08T07:53:15Z</time>
      </trkpt>
      <trkpt lat="43.32541" lon="5.53203">
        <ele>407.5</ele>
        <time>2016-06-08T07:53:55Z</time>
      </trkpt>
      <trkpt lat="43.32551" lon="5.53223">
        <ele>411.7</ele>
        <time>2016-06-08T07:54:23Z</time>
      </trkpt>
      <trkpt lat="43.32552" lon="5.53223">
        <ele>411.8</ele>
        <time>2016-06-08T07:54:24Z</time>
      </trkpt>
      <trkpt lat="43.32585" lon="5.53221">
        <ele>414.7</ele>
        <time>2016-06-08T07:55:02Z</time>
      </trkpt>
      <trkpt lat="43.32603" lon="5.5322">
        <ele>416.3</ele>
        <time>2016-06-08T07:55:20Z</time>
      </trkpt>
      <trkpt lat="43.3262" lon="5.5322">
        <ele>415.2</ele>
        <time>2016-06-08T07:55:38Z</time>
      </trkpt>
      <trkpt lat="43.32621" lon="5.5322">
        <ele>415.2</ele>
        <time>2016-06-08T07:55:39Z</time>
      </trkpt>
      <trkpt lat="43.32654" lon="5.53226">
        <ele>419.7</ele>
        <time>2016-06-08T07:56:16Z</time>
      </trkpt>
      <trkpt lat="43.3265" lon="5.53249">
        <ele>423.8</ele>
        <time>2016-06-08T07:56:37Z</time>
      </trkpt>
      <trkpt lat="43.32644" lon="5.53272">
        <ele>427.7</ele>
        <time>2016-06-08T07:56:57Z</time>
      </trkpt>
      <trkpt lat="43.32644" lon="5.53273">
        <ele>428</ele>
        <time>2016-06-08T07:56:58Z</time>
      </trkpt>
      <trkpt lat="43.32677" lon="5.53275">
        <ele>433.2</ele>
        <time>2016-06-08T07:57:43Z</time>
      </trkpt>
      <trkpt lat="43.32694" lon="5.53269">
        <ele>436.1</ele>
        <time>2016-06-08T07:58:02Z</time>
      </trkpt>
      <trkpt lat="43.32695" lon="5.53268">
        <ele>436.2</ele>
        <time>2016-06-08T07:58:03Z</time>
      </trkpt>
      <trkpt lat="43.32728" lon="5.53258">
        <ele>438.8</ele>
        <time>2016-06-08T07:58:41Z</time>
      </trkpt>
      <trkpt lat="43.32735" lon="5.53281">
        <ele>442.1</ele>
        <time>2016-06-08T07:59:05Z</time>
      </trkpt>
      <trkpt lat="43.32734" lon="5.53282">
        <ele>442.2</ele>
        <time>2016-06-08T07:59:06Z</time>
      </trkpt>
      <trkpt lat="43.32722" lon="5.53326">
        <ele>448.3</ele>
        <time>2016-06-08T07:59:46Z</time>
      </trkpt>
      <trkpt lat="43.32717" lon="5.53349">
        <ele>451.5</ele>
        <time>2016-06-08T08:00:08Z</time>
      </trkpt>
      <trkpt lat="43.32717" lon="5.5335">
        <ele>451.7</ele>
        <time>2016-06-08T08:00:09Z</time>
      </trkpt>
      <trkpt lat="43.32715" lon="5.53396">
        <ele>456.8</ele>
        <time>2016-06-08T08:00:46Z</time>
      </trkpt>
      <trkpt lat="43.32716" lon="5.5342">
        <ele>457.2</ele>
        <time>2016-06-08T08:01:04Z</time>
      </trkpt>
      <trkpt lat="43.32719" lon="5.53445">
        <ele>458.3</ele>
        <time>2016-06-08T08:01:22Z</time>
      </trkpt>
      <trkpt lat="43.32719" lon="5.53446">
        <ele>458.3</ele>
        <time>2016-06-08T08:01:23Z</time>
      </trkpt>
      <trkpt lat="43.32732" lon="5.5349">
        <ele>462.2</ele>
        <time>2016-06-08T08:01:59Z</time>
      </trkpt>
      <trkpt lat="43.32748" lon="5.53481">
        <ele>463.7</ele>
        <time>2016-06-08T08:02:25Z</time>
      </trkpt>
      <trkpt lat="43.32748" lon="5.5348">
        <ele>464.2</ele>
        <time>2016-06-08T08:02:26Z</time>
      </trkpt>
      <trkpt lat="43.32769" lon="5.53443">
        <ele>468.5</ele>
        <time>2016-06-08T08:03:03Z</time>
      </trkpt>
      <trkpt lat="43.32784" lon="5.53432">
        <ele>470.7</ele>
        <time>2016-06-08T08:03:59Z</time>
      </trkpt>
      <trkpt lat="43.32785" lon="5.53431">
        <ele>471</ele>
        <time>2016-06-08T08:04:00Z</time>
      </trkpt>
      <trkpt lat="43.32817" lon="5.53416">
        <ele>476.1</ele>
        <time>2016-06-08T08:04:33Z</time>
      </trkpt>
      <trkpt lat="43.32834" lon="5.53413">
        <ele>474.7</ele>
        <time>2016-06-08T08:04:51Z</time>
      </trkpt>
      <trkpt lat="43.32847" lon="5.53429">
        <ele>478.5</ele>
        <time>2016-06-08T08:05:09Z</time>
      </trkpt>
      <trkpt lat="43.32847" lon="5.5343">
        <ele>478.7</ele>
        <time>2016-06-08T08:05:10Z</time>
      </trkpt>
      <trkpt lat="43.32866" lon="5.5347">
        <ele>485.7</ele>
        <time>2016-06-08T08:05:48Z</time>
      </trkpt>
      <trkpt lat="43.32877" lon="5.5349">
        <ele>489.3</ele>
        <time>2016-06-08T08:06:06Z</time>
      </trkpt>
      <trkpt lat="43.32886" lon="5.5351">
        <ele>491.8</ele>
        <time>2016-06-08T08:06:25Z</time>
      </trkpt>
      <trkpt lat="43.32886" lon="5.53511">
        <ele>492.1</ele>
        <time>2016-06-08T08:06:26Z</time>
      </trkpt>
      <trkpt lat="43.32905" lon="5.53552">
        <ele>497</ele>
        <time>2016-06-08T08:07:08Z</time>
      </trkpt>
      <trkpt lat="43.32917" lon="5.53568">
        <ele>498.7</ele>
        <time>2016-06-08T08:07:30Z</time>
      </trkpt>
      <trkpt lat="43.32918" lon="5.53568">
        <ele>498.7</ele>
        <time>2016-06-08T08:07:31Z</time>
      </trkpt>
      <trkpt lat="43.3295" lon="5.53577">
        <ele>506.6</ele>
        <time>2016-06-08T08:13:07Z</time>
      </trkpt>
      <trkpt lat="43.3295" lon="5.53578">
        <ele>506.5</ele>
        <time>2016-06-08T08:13:08Z</time>
      </trkpt>
      <trkpt lat="43.32959" lon="5.53599">
        <ele>508.3</ele>
        <time>2016-06-08T08:17:08Z</time>
      </trkpt>
      <trkpt lat="43.32991" lon="5.53603">
        <ele>512.2</ele>
        <time>2016-06-08T08:17:54Z</time>
      </trkpt>
      <trkpt lat="43.33002" lon="5.53621">
        <ele>516</ele>
        <time>2016-06-08T08:19:23Z</time>
      </trkpt>
      <trkpt lat="43.33003" lon="5.53622">
        <ele>516.5</ele>
        <time>2016-06-08T08:19:24Z</time>
      </trkpt>
      <trkpt lat="43.33031" lon="5.53649">
        <ele>514.7</ele>
        <time>2016-06-08T08:20:07Z</time>
      </trkpt>
      <trkpt lat="43.33027" lon="5.53672">
        <ele>520.5</ele>
        <time>2016-06-08T08:35:16Z</time>
      </trkpt>
      <trkpt lat="43.33026" lon="5.53673">
        <ele>520.7</ele>
        <time>2016-06-08T08:35:17Z</time>
      </trkpt>
      <trkpt lat="43.33009" lon="5.53712">
        <ele>525.7</ele>
        <time>2016-06-08T08:35:56Z</time>
      </trkpt>
      <trkpt lat="43.33006" lon="5.53736">
        <ele>527</ele>
        <time>2016-06-08T08:36:16Z</time>
      </trkpt>
      <trkpt lat="43.33005" lon="5.53761">
        <ele>527.4</ele>
        <time>2016-06-08T08:36:35Z</time>
      </trkpt>
      <trkpt lat="43.33005" lon="5.53762">
        <ele>527.5</ele>
        <time>2016-06-08T08:36:36Z</time>
      </trkpt>
      <trkpt lat="43.33005" lon="5.53809">
        <ele>527</ele>
        <time>2016-06-08T08:37:10Z</time>
      </trkpt>
      <trkpt lat="43.33004" lon="5.53833">
        <ele>527</ele>
        <time>2016-06-08T08:37:30Z</time>
      </trkpt>
      <trkpt lat="43.33004" lon="5.53858">
        <ele>527.9</ele>
        <time>2016-06-08T08:37:50Z</time>
      </trkpt>
      <trkpt lat="43.33004" lon="5.53859">
        <ele>527.9</ele>
        <time>2016-06-08T08:37:51Z</time>
      </trkpt>
      <trkpt lat="43.33002" lon="5.53906">
        <ele>534.2</ele>
        <time>2016-06-08T08:38:30Z</time>
      </trkpt>
      <trkpt lat="43.32997" lon="5.53929">
        <ele>537.7</ele>
        <time>2016-06-08T08:38:49Z</time>
      </trkpt>
      <trkpt lat="43.32994" lon="5.53953">
        <ele>536.7</ele>
        <time>2016-06-08T08:39:08Z</time>
      </trkpt>
      <trkpt lat="43.32994" lon="5.53954">
        <ele>536.4</ele>
        <time>2016-06-08T08:39:09Z</time>
      </trkpt>
      <trkpt lat="43.33006" lon="5.53997">
        <ele>541.2</ele>
        <time>2016-06-08T08:39:47Z</time>
      </trkpt>
      <trkpt lat="43.33014" lon="5.54019">
        <ele>542.5</ele>
        <time>2016-06-08T08:40:07Z</time>
      </trkpt>
      <trkpt lat="43.33017" lon="5.54043">
        <ele>543.4</ele>
        <time>2016-06-08T08:40:28Z</time>
      </trkpt>
      <trkpt lat="43.33017" lon="5.54045">
        <ele>543.5</ele>
        <time>2016-06-08T08:40:29Z</time>
      </trkpt>
      <trkpt lat="43.3302" lon="5.54092">
        <ele>554.2</ele>
        <time>2016-06-08T08:41:44Z</time>
      </trkpt>
      <trkpt lat="43.3302" lon="5.54092">
        <ele>554.2</ele>
        <time>2016-06-08T08:41:45Z</time>
      </trkpt>
      <trkpt lat="43.33028" lon="5.54114">
        <ele>552.5</ele>
        <time>2016-06-08T08:43:03Z</time>
      </trkpt>
      <trkpt lat="43.33059" lon="5.54128">
        <ele>560.9</ele>
        <time>2016-06-08T08:43:57Z</time>
      </trkpt>
      <trkpt lat="43.33069" lon="5.54108">
        <ele>563.4</ele>
        <time>2016-06-08T08:44:15Z</time>
      </trkpt>
      <trkpt lat="43.3307" lon="5.54107">
        <ele>563.5</ele>
        <time>2016-06-08T08:44:16Z</time>
      </trkpt>
      <trkpt lat="43.33095" lon="5.54123">
        <ele>567.2</ele>
        <time>2016-06-08T08:45:00Z</time>
      </trkpt>
      <trkpt lat="43.33102" lon="5.54146">
        <ele>567.4</ele>
        <time>2016-06-08T08:45:19Z</time>
      </trkpt>
      <trkpt lat="43.33103" lon="5.54147">
        <ele>567.4</ele>
        <time>2016-06-08T08:45:20Z</time>
      </trkpt>
      <trkpt lat="43.33115" lon="5.54191">
        <ele>568.2</ele>
        <time>2016-06-08T08:45:57Z</time>
      </trkpt>
      <trkpt lat="43.33129" lon="5.54206">
        <ele>571</ele>
        <time>2016-06-08T08:46:22Z</time>
      </trkpt>
      <trkpt lat="43.3313" lon="5.54206">
        <ele>571</ele>
        <time>2016-06-08T08:46:23Z</time>
      </trkpt>
      <trkpt lat="43.33163" lon="5.54222">
        <ele>581.4</ele>
        <time>2016-06-08T08:47:05Z</time>
      </trkpt>
      <trkpt lat="43.33177" lon="5.54208">
        <ele>585.5</ele>
        <time>2016-06-08T08:47:26Z</time>
      </trkpt>
      <trkpt lat="43.33178" lon="5.54207">
        <ele>585.7</ele>
        <time>2016-06-08T08:47:27Z</time>
      </trkpt>
      <trkpt lat="43.332" lon="5.54171">
        <ele>588.5</ele>
        <time>2016-06-08T08:48:20Z</time>
      </trkpt>
      <trkpt lat="43.33217" lon="5.54177">
        <ele>590.7</ele>
        <time>2016-06-08T08:54:53Z</time>
      </trkpt>
      <trkpt lat="43.33218" lon="5.54177">
        <ele>590.7</ele>
        <time>2016-06-08T08:54:54Z</time>
      </trkpt>
      <trkpt lat="43.33251" lon="5.5417">
        <ele>596</ele>
        <time>2016-06-08T08:56:42Z</time>
      </trkpt>
      <trkpt lat="43.33252" lon="5.5417">
        <ele>596</ele>
        <time>2016-06-08T08:56:43Z</time>
      </trkpt>
      <trkpt lat="43.33263" lon="5.54189">
        <ele>596.4</ele>
        <time>2016-06-08T09:00:01Z</time>
      </trkpt>
      <trkpt lat="43.33291" lon="5.54187">
        <ele>596.5</ele>
        <time>2016-06-08T09:01:19Z</time>
      </trkpt>
      <trkpt lat="43.33291" lon="5.54187">
        <ele>596</ele>
        <time>2016-06-08T09:01:20Z</time>
      </trkpt>
      <trkpt lat="43.33279" lon="5.54205">
        <ele>598.2</ele>
        <time>2016-06-08T09:02:48Z</time>
      </trkpt>
      <trkpt lat="43.33287" lon="5.54227">
        <ele>597</ele>
        <time>2016-06-08T09:04:40Z</time>
      </trkpt>
      <trkpt lat="43.33304" lon="5.54232">
        <ele>599.4</ele>
        <time>2016-06-08T09:07:19Z</time>
      </trkpt>
      <trkpt lat="43.33285" lon="5.54231">
        <ele>601.5</ele>
        <time>2016-06-08T09:12:13Z</time>
      </trkpt>
      <trkpt lat="43.33291" lon="5.54255">
        <ele>596.9</ele>
        <time>2016-06-08T09:15:12Z</time>
      </trkpt>
      <trkpt lat="43.33292" lon="5.54299">
        <ele>593.9</ele>
        <time>2016-06-08T09:16:05Z</time>
      </trkpt>
      <trkpt lat="43.33287" lon="5.54323">
        <ele>595.7</ele>
        <time>2016-06-08T09:16:32Z</time>
      </trkpt>
      <trkpt lat="43.33287" lon="5.54324">
        <ele>595.5</ele>
        <time>2016-06-08T09:16:33Z</time>
      </trkpt>
      <trkpt lat="43.33302" lon="5.54367">
        <ele>594.7</ele>
        <time>2016-06-08T09:17:15Z</time>
      </trkpt>
      <trkpt lat="43.33309" lon="5.54389">
        <ele>596.4</ele>
        <time>2016-06-08T09:17:35Z</time>
      </trkpt>
      <trkpt lat="43.33309" lon="5.5439">
        <ele>596.5</ele>
        <time>2016-06-08T09:17:36Z</time>
      </trkpt>
      <trkpt lat="43.33323" lon="5.54433">
        <ele>598</ele>
        <time>2016-06-08T09:18:14Z</time>
      </trkpt>
      <trkpt lat="43.3333" lon="5.54454">
        <ele>600.5</ele>
        <time>2016-06-08T09:18:33Z</time>
      </trkpt>
      <trkpt lat="43.3334" lon="5.54474">
        <ele>602.7</ele>
        <time>2016-06-08T09:18:51Z</time>
      </trkpt>
      <trkpt lat="43.33341" lon="5.54475">
        <ele>602.9</ele>
        <time>2016-06-08T09:18:52Z</time>
      </trkpt>
      <trkpt lat="43.3336" lon="5.54515">
        <ele>602.2</ele>
        <time>2016-06-08T09:19:26Z</time>
      </trkpt>
      <trkpt lat="43.33367" lon="5.54537">
        <ele>606</ele>
        <time>2016-06-08T09:19:44Z</time>
      </trkpt>
      <trkpt lat="43.3337" lon="5.54562">
        <ele>607.2</ele>
        <time>2016-06-08T09:20:02Z</time>
      </trkpt>
      <trkpt lat="43.3337" lon="5.54563">
        <ele>607.2</ele>
        <time>2016-06-08T09:20:03Z</time>
      </trkpt>
      <trkpt lat="43.33369" lon="5.5461">
        <ele>609.5</ele>
        <time>2016-06-08T09:20:36Z</time>
      </trkpt>
      <trkpt lat="43.33375" lon="5.54632">
        <ele>609.7</ele>
        <time>2016-06-08T09:20:54Z</time>
      </trkpt>
      <trkpt lat="43.33386" lon="5.54651">
        <ele>610.4</ele>
        <time>2016-06-08T09:21:12Z</time>
      </trkpt>
      <trkpt lat="43.33386" lon="5.54652">
        <ele>610.2</ele>
        <time>2016-06-08T09:21:13Z</time>
      </trkpt>
      <trkpt lat="43.33412" lon="5.54681">
        <ele>610.9</ele>
        <time>2016-06-08T09:21:46Z</time>
      </trkpt>
      <trkpt lat="43.33428" lon="5.54694">
        <ele>612.5</ele>
        <time>2016-06-08T09:22:04Z</time>
      </trkpt>
      <trkpt lat="43.33434" lon="5.54716">
        <ele>612.9</ele>
        <time>2016-06-08T09:22:22Z</time>
      </trkpt>
      <trkpt lat="43.33434" lon="5.54718">
        <ele>612.9</ele>
        <time>2016-06-08T09:22:23Z</time>
      </trkpt>
      <trkpt lat="43.33433" lon="5.54764">
        <ele>615.2</ele>
        <time>2016-06-08T09:22:54Z</time>
      </trkpt>
      <trkpt lat="43.33431" lon="5.54788">
        <ele>616</ele>
        <time>2016-06-08T09:23:10Z</time>
      </trkpt>
      <trkpt lat="43.3343" lon="5.54812">
        <ele>610.9</ele>
        <time>2016-06-08T09:23:26Z</time>
      </trkpt>
      <trkpt lat="43.3343" lon="5.54813">
        <ele>610.4</ele>
        <time>2016-06-08T09:23:27Z</time>
      </trkpt>
      <trkpt lat="43.3343" lon="5.54859">
        <ele>609.7</ele>
        <time>2016-06-08T09:23:55Z</time>
      </trkpt>
      <trkpt lat="43.33431" lon="5.54883">
        <ele>608.4</ele>
        <time>2016-06-08T09:24:10Z</time>
      </trkpt>
      <trkpt lat="43.33435" lon="5.54906">
        <ele>609.5</ele>
        <time>2016-06-08T09:24:25Z</time>
      </trkpt>
      <trkpt lat="43.33441" lon="5.54929">
        <ele>612.2</ele>
        <time>2016-06-08T09:24:41Z</time>
      </trkpt>
      <trkpt lat="43.33441" lon="5.5493">
        <ele>612</ele>
        <time>2016-06-08T09:24:42Z</time>
      </trkpt>
      <trkpt lat="43.3345" lon="5.54974">
        <ele>614.5</ele>
        <time>2016-06-08T09:25:12Z</time>
      </trkpt>
      <trkpt lat="43.33455" lon="5.54998">
        <ele>616</ele>
        <time>2016-06-08T09:25:27Z</time>
      </trkpt>
      <trkpt lat="43.33459" lon="5.55021">
        <ele>616.9</ele>
        <time>2016-06-08T09:25:42Z</time>
      </trkpt>
      <trkpt lat="43.3346" lon="5.55022">
        <ele>617</ele>
        <time>2016-06-08T09:25:43Z</time>
      </trkpt>
      <trkpt lat="43.33478" lon="5.55062">
        <ele>619.2</ele>
        <time>2016-06-08T09:26:18Z</time>
      </trkpt>
      <trkpt lat="43.3349" lon="5.5508">
        <ele>620.7</ele>
        <time>2016-06-08T09:26:36Z</time>
      </trkpt>
      <trkpt lat="43.33505" lon="5.55092">
        <ele>623.5</ele>
        <time>2016-06-08T09:26:59Z</time>
      </trkpt>
      <trkpt lat="43.33506" lon="5.55093">
        <ele>623.5</ele>
        <time>2016-06-08T09:27:00Z</time>
      </trkpt>
      <trkpt lat="43.33513" lon="5.55133">
        <ele>627.5</ele>
        <time>2016-06-08T09:27:55Z</time>
      </trkpt>
      <trkpt lat="43.33515" lon="5.55158">
        <ele>622</ele>
        <time>2016-06-08T09:28:30Z</time>
      </trkpt>
      <trkpt lat="43.33516" lon="5.55158">
        <ele>621.7</ele>
        <time>2016-06-08T09:28:31Z</time>
      </trkpt>
      <trkpt lat="43.33514" lon="5.55167">
        <ele>625.4</ele>
        <time>2016-06-08T09:29:34Z</time>
      </trkpt>
      <trkpt lat="43.3354" lon="5.55145">
        <ele>623</ele>
        <time>2016-06-08T11:10:29Z</time>
      </trkpt>
      <trkpt lat="43.33541" lon="5.55145">
        <ele>623.4</ele>
        <time>2016-06-08T11:10:30Z</time>
      </trkpt>
      <trkpt lat="43.33537" lon="5.5512">
        <ele>631.5</ele>
        <time>2016-06-08T11:30:31Z</time>
      </trkpt>
      <trkpt lat="43.33542" lon="5.55075">
        <ele>627.5</ele>
        <time>2016-06-08T11:31:23Z</time>
      </trkpt>
      <trkpt lat="43.33531" lon="5.55057">
        <ele>630.9</ele>
        <time>2016-06-08T11:31:46Z</time>
      </trkpt>
      <trkpt lat="43.3353" lon="5.55056">
        <ele>631</ele>
        <time>2016-06-08T11:31:47Z</time>
      </trkpt>
      <trkpt lat="43.33526" lon="5.5501">
        <ele>631</ele>
        <time>2016-06-08T11:32:27Z</time>
      </trkpt>
      <trkpt lat="43.33523" lon="5.54987">
        <ele>632.7</ele>
        <time>2016-06-08T11:32:44Z</time>
      </trkpt>
      <trkpt lat="43.33527" lon="5.54964">
        <ele>633.9</ele>
        <time>2016-06-08T11:33:01Z</time>
      </trkpt>
      <trkpt lat="43.33528" lon="5.54962">
        <ele>634</ele>
        <time>2016-06-08T11:33:02Z</time>
      </trkpt>
      <trkpt lat="43.33533" lon="5.54919">
        <ele>634.5</ele>
        <time>2016-06-08T11:33:32Z</time>
      </trkpt>
      <trkpt lat="43.33528" lon="5.54896">
        <ele>634</ele>
        <time>2016-06-08T11:33:47Z</time>
      </trkpt>
      <trkpt lat="43.33528" lon="5.54872">
        <ele>635</ele>
        <time>2016-06-08T11:34:03Z</time>
      </trkpt>
      <trkpt lat="43.33528" lon="5.5487">
        <ele>635</ele>
        <time>2016-06-08T11:34:04Z</time>
      </trkpt>
      <trkpt lat="43.33536" lon="5.54825">
        <ele>636.2</ele>
        <time>2016-06-08T11:34:46Z</time>
      </trkpt>
      <trkpt lat="43.33547" lon="5.54805">
        <ele>635</ele>
        <time>2016-06-08T11:35:04Z</time>
      </trkpt>
      <trkpt lat="43.33548" lon="5.54803">
        <ele>635.2</ele>
        <time>2016-06-08T11:35:05Z</time>
      </trkpt>
      <trkpt lat="43.33566" lon="5.54764">
        <ele>635.2</ele>
        <time>2016-06-08T11:35:35Z</time>
      </trkpt>
      <trkpt lat="43.33571" lon="5.54741">
        <ele>630.5</ele>
        <time>2016-06-08T11:35:55Z</time>
      </trkpt>
      <trkpt lat="43.33579" lon="5.5472">
        <ele>633.5</ele>
        <time>2016-06-08T11:36:11Z</time>
      </trkpt>
      <trkpt lat="43.33579" lon="5.54719">
        <ele>633.5</ele>
        <time>2016-06-08T11:36:12Z</time>
      </trkpt>
      <trkpt lat="43.33588" lon="5.54673">
        <ele>632.7</ele>
        <time>2016-06-08T11:36:48Z</time>
      </trkpt>
      <trkpt lat="43.33595" lon="5.5465">
        <ele>628</ele>
        <time>2016-06-08T11:37:14Z</time>
      </trkpt>
      <trkpt lat="43.33596" lon="5.54649">
        <ele>628.4</ele>
        <time>2016-06-08T11:37:15Z</time>
      </trkpt>
      <trkpt lat="43.33622" lon="5.5462">
        <ele>621</ele>
        <time>2016-06-08T11:38:04Z</time>
      </trkpt>
      <trkpt lat="43.33635" lon="5.54603">
        <ele>616.9</ele>
        <time>2016-06-08T11:38:41Z</time>
      </trkpt>
      <trkpt lat="43.33635" lon="5.54602">
        <ele>616.7</ele>
        <time>2016-06-08T11:38:42Z</time>
      </trkpt>
      <trkpt lat="43.3366" lon="5.54571">
        <ele>603.2</ele>
        <time>2016-06-08T11:40:12Z</time>
      </trkpt>
      <trkpt lat="43.33661" lon="5.54571">
        <ele>603</ele>
        <time>2016-06-08T11:40:13Z</time>
      </trkpt>
      <trkpt lat="43.33679" lon="5.54542">
        <ele>590.5</ele>
        <time>2016-06-08T11:41:35Z</time>
      </trkpt>
      <trkpt lat="43.33679" lon="5.54541">
        <ele>590.5</ele>
        <time>2016-06-08T11:41:36Z</time>
      </trkpt>
      <trkpt lat="43.33681" lon="5.54494">
        <ele>580.4</ele>
        <time>2016-06-08T11:42:30Z</time>
      </trkpt>
      <trkpt lat="43.33674" lon="5.54471">
        <ele>581.5</ele>
        <time>2016-06-08T11:42:49Z</time>
      </trkpt>
      <trkpt lat="43.33674" lon="5.5447">
        <ele>581.5</ele>
        <time>2016-06-08T11:42:50Z</time>
      </trkpt>
      <trkpt lat="43.33654" lon="5.5443">
        <ele>578.5</ele>
        <time>2016-06-08T11:43:33Z</time>
      </trkpt>
      <trkpt lat="43.33648" lon="5.54408">
        <ele>579.2</ele>
        <time>2016-06-08T11:44:05Z</time>
      </trkpt>
      <trkpt lat="43.33648" lon="5.54406">
        <ele>579.5</ele>
        <time>2016-06-08T11:44:06Z</time>
      </trkpt>
      <trkpt lat="43.33667" lon="5.5441">
        <ele>566.4</ele>
        <time>2016-06-08T11:46:41Z</time>
      </trkpt>
      <trkpt lat="43.33692" lon="5.54382">
        <ele>547.5</ele>
        <time>2016-06-08T11:47:50Z</time>
      </trkpt>
      <trkpt lat="43.33693" lon="5.54381">
        <ele>546.9</ele>
        <time>2016-06-08T11:47:51Z</time>
      </trkpt>
      <trkpt lat="43.33679" lon="5.54364">
        <ele>544.5</ele>
        <time>2016-06-08T11:49:02Z</time>
      </trkpt>
      <trkpt lat="43.33653" lon="5.54334">
        <ele>537.9</ele>
        <time>2016-06-08T11:49:49Z</time>
      </trkpt>
      <trkpt lat="43.3364" lon="5.54318">
        <ele>528.5</ele>
        <time>2016-06-08T11:50:12Z</time>
      </trkpt>
      <trkpt lat="43.3364" lon="5.54317">
        <ele>528.5</ele>
        <time>2016-06-08T11:50:13Z</time>
      </trkpt>
      <trkpt lat="43.33631" lon="5.54271">
        <ele>514.9</ele>
        <time>2016-06-08T11:51:01Z</time>
      </trkpt>
      <trkpt lat="43.33624" lon="5.54249">
        <ele>514.7</ele>
        <time>2016-06-08T11:51:23Z</time>
      </trkpt>
      <trkpt lat="43.33624" lon="5.54248">
        <ele>514.2</ele>
        <time>2016-06-08T11:51:24Z</time>
      </trkpt>
      <trkpt lat="43.33603" lon="5.54212">
        <ele>516.7</ele>
        <time>2016-06-08T11:52:02Z</time>
      </trkpt>
      <trkpt lat="43.33592" lon="5.54193">
        <ele>514.4</ele>
        <time>2016-06-08T11:52:20Z</time>
      </trkpt>
      <trkpt lat="43.3358" lon="5.54176">
        <ele>514.9</ele>
        <time>2016-06-08T11:52:37Z</time>
      </trkpt>
      <trkpt lat="43.3358" lon="5.54175">
        <ele>514.5</ele>
        <time>2016-06-08T11:52:38Z</time>
      </trkpt>
      <trkpt lat="43.33571" lon="5.54128">
        <ele>510.1</ele>
        <time>2016-06-08T11:54:40Z</time>
      </trkpt>
      <trkpt lat="43.3357" lon="5.54128">
        <ele>510</ele>
        <time>2016-06-08T11:54:41Z</time>
      </trkpt>
      <trkpt lat="43.33551" lon="5.54088">
        <ele>507.7</ele>
        <time>2016-06-08T11:55:35Z</time>
      </trkpt>
      <trkpt lat="43.33541" lon="5.54069">
        <ele>506.2</ele>
        <time>2016-06-08T11:55:51Z</time>
      </trkpt>
      <trkpt lat="43.33541" lon="5.54068">
        <ele>506.1</ele>
        <time>2016-06-08T11:55:52Z</time>
      </trkpt>
      <trkpt lat="43.33521" lon="5.54031">
        <ele>511.6</ele>
        <time>2016-06-08T11:56:27Z</time>
      </trkpt>
      <trkpt lat="43.33505" lon="5.54023">
        <ele>504.8</ele>
        <time>2016-06-08T11:56:53Z</time>
      </trkpt>
      <trkpt lat="43.33504" lon="5.54022">
        <ele>504.7</ele>
        <time>2016-06-08T11:56:54Z</time>
      </trkpt>
      <trkpt lat="43.33491" lon="5.5398">
        <ele>503.7</ele>
        <time>2016-06-08T11:57:25Z</time>
      </trkpt>
      <trkpt lat="43.33476" lon="5.53966">
        <ele>504.2</ele>
        <time>2016-06-08T11:57:41Z</time>
      </trkpt>
      <trkpt lat="43.33463" lon="5.53951">
        <ele>503.2</ele>
        <time>2016-06-08T11:57:57Z</time>
      </trkpt>
      <trkpt lat="43.33462" lon="5.5395">
        <ele>503</ele>
        <time>2016-06-08T11:57:58Z</time>
      </trkpt>
      <trkpt lat="43.33436" lon="5.53921">
        <ele>495.2</ele>
        <time>2016-06-08T11:58:31Z</time>
      </trkpt>
      <trkpt lat="43.33423" lon="5.53905">
        <ele>495</ele>
        <time>2016-06-08T11:58:48Z</time>
      </trkpt>
      <trkpt lat="43.33413" lon="5.53884">
        <ele>489.8</ele>
        <time>2016-06-08T11:59:05Z</time>
      </trkpt>
      <trkpt lat="43.33412" lon="5.53883">
        <ele>489.6</ele>
        <time>2016-06-08T11:59:06Z</time>
      </trkpt>
      <trkpt lat="43.33394" lon="5.53845">
        <ele>485.2</ele>
        <time>2016-06-08T11:59:34Z</time>
      </trkpt>
      <trkpt lat="43.33384" lon="5.53825">
        <ele>482.3</ele>
        <time>2016-06-08T11:59:52Z</time>
      </trkpt>
      <trkpt lat="43.33376" lon="5.53804">
        <ele>479.5</ele>
        <time>2016-06-08T12:00:08Z</time>
      </trkpt>
      <trkpt lat="43.33375" lon="5.53803">
        <ele>479.6</ele>
        <time>2016-06-08T12:00:09Z</time>
      </trkpt>
      <trkpt lat="43.33362" lon="5.5376">
        <ele>471.8</ele>
        <time>2016-06-08T12:00:41Z</time>
      </trkpt>
      <trkpt lat="43.33357" lon="5.53738">
        <ele>473.6</ele>
        <time>2016-06-08T12:00:55Z</time>
      </trkpt>
      <trkpt lat="43.33348" lon="5.53717">
        <ele>475.8</ele>
        <time>2016-06-08T12:01:10Z</time>
      </trkpt>
      <trkpt lat="43.33347" lon="5.53716">
        <ele>476.1</ele>
        <time>2016-06-08T12:01:11Z</time>
      </trkpt>
      <trkpt lat="43.3333" lon="5.53676">
        <ele>476.1</ele>
        <time>2016-06-08T12:01:44Z</time>
      </trkpt>
      <trkpt lat="43.33323" lon="5.53654">
        <ele>478.5</ele>
        <time>2016-06-08T12:02:00Z</time>
      </trkpt>
      <trkpt lat="43.33316" lon="5.53632">
        <ele>473.7</ele>
        <time>2016-06-08T12:02:24Z</time>
      </trkpt>
      <trkpt lat="43.33316" lon="5.5363">
        <ele>473.7</ele>
        <time>2016-06-08T12:02:25Z</time>
      </trkpt>
      <trkpt lat="43.33297" lon="5.53592">
        <ele>473.1</ele>
        <time>2016-06-08T12:02:55Z</time>
      </trkpt>
      <trkpt lat="43.33284" lon="5.53577">
        <ele>467.7</ele>
        <time>2016-06-08T12:03:15Z</time>
      </trkpt>
      <trkpt lat="43.33269" lon="5.53564">
        <ele>468.1</ele>
        <time>2016-06-08T12:03:30Z</time>
      </trkpt>
      <trkpt lat="43.33268" lon="5.53563">
        <ele>467.8</ele>
        <time>2016-06-08T12:03:31Z</time>
      </trkpt>
      <trkpt lat="43.33247" lon="5.53526">
        <ele>471</ele>
        <time>2016-06-08T12:04:00Z</time>
      </trkpt>
      <trkpt lat="43.33236" lon="5.53507">
        <ele>476.7</ele>
        <time>2016-06-08T12:04:29Z</time>
      </trkpt>
      <trkpt lat="43.3322" lon="5.53497">
        <ele>470.7</ele>
        <time>2016-06-08T12:04:56Z</time>
      </trkpt>
      <trkpt lat="43.33219" lon="5.53497">
        <ele>470.5</ele>
        <time>2016-06-08T12:04:57Z</time>
      </trkpt>
      <trkpt lat="43.33185" lon="5.53498">
        <ele>460.3</ele>
        <time>2016-06-08T12:05:49Z</time>
      </trkpt>
      <trkpt lat="43.33168" lon="5.53492">
        <ele>457.2</ele>
        <time>2016-06-08T12:06:09Z</time>
      </trkpt>
      <trkpt lat="43.33167" lon="5.53492">
        <ele>457.2</ele>
        <time>2016-06-08T12:06:10Z</time>
      </trkpt>
      <trkpt lat="43.33134" lon="5.53485">
        <ele>450</ele>
        <time>2016-06-08T12:06:53Z</time>
      </trkpt>
      <trkpt lat="43.33116" lon="5.53482">
        <ele>447.7</ele>
        <time>2016-06-08T12:07:20Z</time>
      </trkpt>
      <trkpt lat="43.33115" lon="5.53482">
        <ele>447.6</ele>
        <time>2016-06-08T12:07:21Z</time>
      </trkpt>
      <trkpt lat="43.33081" lon="5.53482">
        <ele>438.7</ele>
        <time>2016-06-08T12:08:18Z</time>
      </trkpt>
      <trkpt lat="43.33065" lon="5.53474">
        <ele>434.1</ele>
        <time>2016-06-08T12:08:33Z</time>
      </trkpt>
      <trkpt lat="43.33064" lon="5.53473">
        <ele>433.7</ele>
        <time>2016-06-08T12:08:34Z</time>
      </trkpt>
      <trkpt lat="43.33039" lon="5.53441">
        <ele>434.3</ele>
        <time>2016-06-08T12:09:05Z</time>
      </trkpt>
      <trkpt lat="43.33027" lon="5.53423">
        <ele>434</ele>
        <time>2016-06-08T12:09:21Z</time>
      </trkpt>
      <trkpt lat="43.33014" lon="5.53408">
        <ele>433.1</ele>
        <time>2016-06-08T12:09:37Z</time>
      </trkpt>
      <trkpt lat="43.33013" lon="5.53406">
        <ele>432.8</ele>
        <time>2016-06-08T12:09:38Z</time>
      </trkpt>
      <trkpt lat="43.33" lon="5.53363">
        <ele>434.2</ele>
        <time>2016-06-08T12:10:13Z</time>
      </trkpt>
      <trkpt lat="43.32992" lon="5.53341">
        <ele>428.7</ele>
        <time>2016-06-08T12:10:36Z</time>
      </trkpt>
      <trkpt lat="43.32981" lon="5.53323">
        <ele>423.7</ele>
        <time>2016-06-08T12:11:00Z</time>
      </trkpt>
      <trkpt lat="43.3298" lon="5.53322">
        <ele>423.6</ele>
        <time>2016-06-08T12:11:01Z</time>
      </trkpt>
      <trkpt lat="43.32962" lon="5.53282">
        <ele>418.1</ele>
        <time>2016-06-08T12:11:34Z</time>
      </trkpt>
      <trkpt lat="43.32952" lon="5.53261">
        <ele>415.2</ele>
        <time>2016-06-08T12:11:51Z</time>
      </trkpt>
      <trkpt lat="43.32943" lon="5.5324">
        <ele>413.7</ele>
        <time>2016-06-08T12:12:07Z</time>
      </trkpt>
      <trkpt lat="43.32942" lon="5.53239">
        <ele>413.7</ele>
        <time>2016-06-08T12:12:08Z</time>
      </trkpt>
      <trkpt lat="43.32923" lon="5.53202">
        <ele>410.7</ele>
        <time>2016-06-08T12:12:39Z</time>
      </trkpt>
      <trkpt lat="43.32909" lon="5.5319">
        <ele>409.2</ele>
        <time>2016-06-08T12:12:55Z</time>
      </trkpt>
      <trkpt lat="43.32897" lon="5.53171">
        <ele>405.7</ele>
        <time>2016-06-08T12:13:13Z</time>
      </trkpt>
      <trkpt lat="43.32896" lon="5.5317">
        <ele>405.7</ele>
        <time>2016-06-08T12:13:14Z</time>
      </trkpt>
      <trkpt lat="43.32874" lon="5.53135">
        <ele>399.8</ele>
        <time>2016-06-08T12:13:50Z</time>
      </trkpt>
      <trkpt lat="43.32863" lon="5.53116">
        <ele>395.1</ele>
        <time>2016-06-08T12:14:24Z</time>
      </trkpt>
      <trkpt lat="43.32862" lon="5.53115">
        <ele>395.2</ele>
        <time>2016-06-08T12:14:25Z</time>
      </trkpt>
      <trkpt lat="43.32848" lon="5.53071">
        <ele>383.8</ele>
        <time>2016-06-08T12:15:30Z</time>
      </trkpt>
      <trkpt lat="43.32848" lon="5.53071">
        <ele>383.6</ele>
        <time>2016-06-08T12:15:31Z</time>
      </trkpt>
      <trkpt lat="43.32825" lon="5.53034">
        <ele>380.5</ele>
        <time>2016-06-08T12:16:15Z</time>
      </trkpt>
      <trkpt lat="43.32811" lon="5.53019">
        <ele>375.1</ele>
        <time>2016-06-08T12:16:38Z</time>
      </trkpt>
      <trkpt lat="43.32811" lon="5.53018">
        <ele>374.5</ele>
        <time>2016-06-08T12:16:39Z</time>
      </trkpt>
      <trkpt lat="43.32789" lon="5.52981">
        <ele>369.6</ele>
        <time>2016-06-08T12:17:28Z</time>
      </trkpt>
      <trkpt lat="43.3278" lon="5.52961">
        <ele>361.5</ele>
        <time>2016-06-08T12:17:58Z</time>
      </trkpt>
      <trkpt lat="43.32779" lon="5.5296">
        <ele>361.6</ele>
        <time>2016-06-08T12:17:59Z</time>
      </trkpt>
      <trkpt lat="43.32757" lon="5.52925">
        <ele>352.5</ele>
        <time>2016-06-08T12:18:39Z</time>
      </trkpt>
      <trkpt lat="43.3275" lon="5.52903">
        <ele>348.7</ele>
        <time>2016-06-08T12:18:59Z</time>
      </trkpt>
      <trkpt lat="43.32735" lon="5.52888">
        <ele>343.5</ele>
        <time>2016-06-08T12:19:17Z</time>
      </trkpt>
      <trkpt lat="43.32734" lon="5.52888">
        <ele>343.5</ele>
        <time>2016-06-08T12:19:18Z</time>
      </trkpt>
      <trkpt lat="43.32723" lon="5.5287">
        <ele>348.2</ele>
        <time>2016-06-08T12:21:57Z</time>
      </trkpt>
      <trkpt lat="43.32691" lon="5.52853">
        <ele>340.7</ele>
        <time>2016-06-08T12:22:33Z</time>
      </trkpt>
      <trkpt lat="43.32678" lon="5.52838">
        <ele>344</ele>
        <time>2016-06-08T12:22:48Z</time>
      </trkpt>
      <trkpt lat="43.32664" lon="5.52823">
        <ele>341.7</ele>
        <time>2016-06-08T12:23:07Z</time>
      </trkpt>
      <trkpt lat="43.32664" lon="5.52823">
        <ele>341.7</ele>
        <time>2016-06-08T12:23:08Z</time>
      </trkpt>
      <trkpt lat="43.32637" lon="5.52794">
        <ele>340</ele>
        <time>2016-06-08T12:23:43Z</time>
      </trkpt>
      <trkpt lat="43.32622" lon="5.52781">
        <ele>338.3</ele>
        <time>2016-06-08T12:24:00Z</time>
      </trkpt>
      <trkpt lat="43.3261" lon="5.52763">
        <ele>337.1</ele>
        <time>2016-06-08T12:24:23Z</time>
      </trkpt>
      <trkpt lat="43.3261" lon="5.52762">
        <ele>336.7</ele>
        <time>2016-06-08T12:24:24Z</time>
      </trkpt>
      <trkpt lat="43.32581" lon="5.52737">
        <ele>331.2</ele>
        <time>2016-06-08T12:25:05Z</time>
      </trkpt>
      <trkpt lat="43.32566" lon="5.52723">
        <ele>333.2</ele>
        <time>2016-06-08T12:25:28Z</time>
      </trkpt>
      <trkpt lat="43.32566" lon="5.52722">
        <ele>332.8</ele>
        <time>2016-06-08T12:25:29Z</time>
      </trkpt>
      <trkpt lat="43.32541" lon="5.5269">
        <ele>331.3</ele>
        <time>2016-06-08T12:26:11Z</time>
      </trkpt>
      <trkpt lat="43.3253" lon="5.52672">
        <ele>327.8</ele>
        <time>2016-06-08T12:26:38Z</time>
      </trkpt>
      <trkpt lat="43.32529" lon="5.52671">
        <ele>328.2</ele>
        <time>2016-06-08T12:26:39Z</time>
      </trkpt>
      <trkpt lat="43.32495" lon="5.52675">
        <ele>329.8</ele>
        <time>2016-06-08T12:27:18Z</time>
      </trkpt>
      <trkpt lat="43.32478" lon="5.5268">
        <ele>329.2</ele>
        <time>2016-06-08T12:27:37Z</time>
      </trkpt>
      <trkpt lat="43.32463" lon="5.52693">
        <ele>327.7</ele>
        <time>2016-06-08T12:27:55Z</time>
      </trkpt>
      <trkpt lat="43.32462" lon="5.52694">
        <ele>327.7</ele>
        <time>2016-06-08T12:27:56Z</time>
      </trkpt>
      <trkpt lat="43.32431" lon="5.52711">
        <ele>328.5</ele>
        <time>2016-06-08T12:28:34Z</time>
      </trkpt>
      <trkpt lat="43.32414" lon="5.52712">
        <ele>328.5</ele>
        <time>2016-06-08T12:28:53Z</time>
      </trkpt>
      <trkpt lat="43.32396" lon="5.52716">
        <ele>330.2</ele>
        <time>2016-06-08T12:29:13Z</time>
      </trkpt>
      <trkpt lat="43.32395" lon="5.52717">
        <ele>330.3</ele>
        <time>2016-06-08T12:29:14Z</time>
      </trkpt>
      <trkpt lat="43.32362" lon="5.52728">
        <ele>333.2</ele>
        <time>2016-06-08T12:29:47Z</time>
      </trkpt>
      <trkpt lat="43.32345" lon="5.52732">
        <ele>333.7</ele>
        <time>2016-06-08T12:30:05Z</time>
      </trkpt>
      <trkpt lat="43.32337" lon="5.52753">
        <ele>335.2</ele>
        <time>2016-06-08T12:40:45Z</time>
      </trkpt>
      <trkpt lat="43.32336" lon="5.52754">
        <ele>335</ele>
        <time>2016-06-08T12:40:46Z</time>
      </trkpt>
      <trkpt lat="43.32306" lon="5.52774">
        <ele>329</ele>
        <time>2016-06-08T12:41:19Z</time>
      </trkpt>
      <trkpt lat="43.3229" lon="5.52783">
        <ele>326.6</ele>
        <time>2016-06-08T12:41:35Z</time>
      </trkpt>
      <trkpt lat="43.32276" lon="5.52797">
        <ele>324.3</ele>
        <time>2016-06-08T12:41:51Z</time>
      </trkpt>
      <trkpt lat="43.32275" lon="5.52798">
        <ele>324.2</ele>
        <time>2016-06-08T12:41:52Z</time>
      </trkpt>
      <trkpt lat="43.3225" lon="5.52826">
        <ele>318.5</ele>
        <time>2016-06-08T12:42:22Z</time>
      </trkpt>
      <trkpt lat="43.32241" lon="5.52846">
        <ele>316.3</ele>
        <time>2016-06-08T12:42:38Z</time>
      </trkpt>
      <trkpt lat="43.32238" lon="5.5287">
        <ele>315.8</ele>
        <time>2016-06-08T12:42:53Z</time>
      </trkpt>
      <trkpt lat="43.32238" lon="5.52871">
        <ele>315.3</ele>
        <time>2016-06-08T12:42:54Z</time>
      </trkpt>
      <trkpt lat="43.32205" lon="5.52877">
        <ele>316.6</ele>
        <time>2016-06-08T12:43:25Z</time>
      </trkpt>
      <trkpt lat="43.32189" lon="5.5288">
        <ele>319</ele>
        <time>2016-06-08T12:43:39Z</time>
      </trkpt>
      <trkpt lat="43.32171" lon="5.52882">
        <ele>319.1</ele>
        <time>2016-06-08T12:43:54Z</time>
      </trkpt>
      <trkpt lat="43.3217" lon="5.52883">
        <ele>318.7</ele>
        <time>2016-06-08T12:43:55Z</time>
      </trkpt>
      <trkpt lat="43.32141" lon="5.52904">
        <ele>321</ele>
        <time>2016-06-08T12:44:25Z</time>
      </trkpt>
      <trkpt lat="43.32126" lon="5.52917">
        <ele>324</ele>
        <time>2016-06-08T12:44:41Z</time>
      </trkpt>
      <trkpt lat="43.32113" lon="5.52933">
        <ele>328</ele>
        <time>2016-06-08T12:44:56Z</time>
      </trkpt>
      <trkpt lat="43.32112" lon="5.52934">
        <ele>327.5</ele>
        <time>2016-06-08T12:44:57Z</time>
      </trkpt>
      <trkpt lat="43.32088" lon="5.52967">
        <ele>326</ele>
        <time>2016-06-08T12:45:28Z</time>
      </trkpt>
      <trkpt lat="43.32078" lon="5.52985">
        <ele>326.1</ele>
        <time>2016-06-08T12:45:44Z</time>
      </trkpt>
      <trkpt lat="43.32069" lon="5.53007">
        <ele>327.8</ele>
        <time>2016-06-08T12:45:59Z</time>
      </trkpt>
      <trkpt lat="43.32069" lon="5.53008">
        <ele>328</ele>
        <time>2016-06-08T12:46:00Z</time>
      </trkpt>
      <trkpt lat="43.32046" lon="5.53041">
        <ele>323.3</ele>
        <time>2016-06-08T12:46:37Z</time>
      </trkpt>
      <trkpt lat="43.3203" lon="5.53049">
        <ele>318.6</ele>
        <time>2016-06-08T12:46:57Z</time>
      </trkpt>
      <trkpt lat="43.32013" lon="5.53049">
        <ele>319.1</ele>
        <time>2016-06-08T12:47:12Z</time>
      </trkpt>
      <trkpt lat="43.32011" lon="5.53049">
        <ele>319</ele>
        <time>2016-06-08T12:47:13Z</time>
      </trkpt>
      <trkpt lat="43.31979" lon="5.53034">
        <ele>315.2</ele>
        <time>2016-06-08T12:47:44Z</time>
      </trkpt>
      <trkpt lat="43.31966" lon="5.53052">
        <ele>312.8</ele>
        <time>2016-06-08T12:48:02Z</time>
      </trkpt>
      <trkpt lat="43.31952" lon="5.53066">
        <ele>308.6</ele>
        <time>2016-06-08T12:48:25Z</time>
      </trkpt>
      <trkpt lat="43.31951" lon="5.53066">
        <ele>308.2</ele>
        <time>2016-06-08T12:48:26Z</time>
      </trkpt>
      <trkpt lat="43.31922" lon="5.53043">
        <ele>306.2</ele>
        <time>2016-06-08T12:49:00Z</time>
      </trkpt>
      <trkpt lat="43.31905" lon="5.53044">
        <ele>306</ele>
        <time>2016-06-08T12:49:15Z</time>
      </trkpt>
      <trkpt lat="43.3189" lon="5.53056">
        <ele>303.6</ele>
        <time>2016-06-08T12:49:32Z</time>
      </trkpt>
      <trkpt lat="43.31889" lon="5.53057">
        <ele>303.7</ele>
        <time>2016-06-08T12:49:33Z</time>
      </trkpt>
      <trkpt lat="43.31865" lon="5.53089">
        <ele>302.7</ele>
        <time>2016-06-08T12:50:02Z</time>
      </trkpt>
      <trkpt lat="43.31862" lon="5.53112">
        <ele>301.2</ele>
        <time>2016-06-08T12:50:17Z</time>
      </trkpt>
      <trkpt lat="43.31858" lon="5.53135">
        <ele>299.1</ele>
        <time>2016-06-08T12:50:33Z</time>
      </trkpt>
      <trkpt lat="43.31858" lon="5.53136">
        <ele>298.6</ele>
        <time>2016-06-08T12:50:34Z</time>
      </trkpt>
      <trkpt lat="43.31827" lon="5.53151">
        <ele>289.2</ele>
        <time>2016-06-08T12:51:11Z</time>
      </trkpt>
      <trkpt lat="43.31817" lon="5.5317">
        <ele>285.6</ele>
        <time>2016-06-08T12:51:27Z</time>
      </trkpt>
      <trkpt lat="43.31814" lon="5.53194">
        <ele>280.2</ele>
        <time>2016-06-08T12:51:48Z</time>
      </trkpt>
      <trkpt lat="43.31813" lon="5.53195">
        <ele>280.1</ele>
        <time>2016-06-08T12:51:49Z</time>
      </trkpt>
      <trkpt lat="43.31801" lon="5.53239">
        <ele>275.7</ele>
        <time>2016-06-08T12:52:23Z</time>
      </trkpt>
      <trkpt lat="43.31793" lon="5.5326">
        <ele>276.2</ele>
        <time>2016-06-08T12:52:37Z</time>
      </trkpt>
      <trkpt lat="43.31786" lon="5.53283">
        <ele>275.1</ele>
        <time>2016-06-08T12:52:52Z</time>
      </trkpt>
      <trkpt lat="43.31787" lon="5.53284">
        <ele>274.7</ele>
        <time>2016-06-08T12:52:53Z</time>
      </trkpt>
      <trkpt lat="43.31787" lon="5.5333">
        <ele>272.7</ele>
        <time>2016-06-08T12:53:30Z</time>
      </trkpt>
      <trkpt lat="43.31785" lon="5.53354">
        <ele>271.7</ele>
        <time>2016-06-08T12:53:46Z</time>
      </trkpt>
      <trkpt lat="43.31785" lon="5.53378">
        <ele>270.8</ele>
        <time>2016-06-08T12:54:01Z</time>
      </trkpt>
      <trkpt lat="43.31785" lon="5.5338">
        <ele>270.7</ele>
        <time>2016-06-08T12:54:02Z</time>
      </trkpt>
      <trkpt lat="43.31794" lon="5.53425">
        <ele>271.1</ele>
        <time>2016-06-08T12:54:32Z</time>
      </trkpt>
      <trkpt lat="43.31788" lon="5.53447">
        <ele>269.1</ele>
        <time>2016-06-08T12:54:48Z</time>
      </trkpt>
      <trkpt lat="43.31782" lon="5.5347">
        <ele>269.6</ele>
        <time>2016-06-08T12:55:02Z</time>
      </trkpt>
      <trkpt lat="43.31781" lon="5.53494">
        <ele>268.8</ele>
        <time>2016-06-08T12:55:17Z</time>
      </trkpt>
      <trkpt lat="43.31781" lon="5.53496">
        <ele>268.7</ele>
        <time>2016-06-08T12:55:18Z</time>
      </trkpt>
      <trkpt lat="43.31782" lon="5.53541">
        <ele>267.7</ele>
        <time>2016-06-08T12:55:44Z</time>
      </trkpt>
      <trkpt lat="43.31784" lon="5.53566">
        <ele>269</ele>
        <time>2016-06-08T12:55:58Z</time>
      </trkpt>
      <trkpt lat="43.31786" lon="5.53589">
        <ele>269.2</ele>
        <time>2016-06-08T12:56:12Z</time>
      </trkpt>
      <trkpt lat="43.3179" lon="5.53613">
        <ele>269.7</ele>
        <time>2016-06-08T12:56:25Z</time>
      </trkpt>
      <trkpt lat="43.3179" lon="5.53614">
        <ele>269.6</ele>
        <time>2016-06-08T12:56:26Z</time>
      </trkpt>
      <trkpt lat="43.31807" lon="5.53654">
        <ele>268.2</ele>
        <time>2016-06-08T12:56:53Z</time>
      </trkpt>
      <trkpt lat="43.31815" lon="5.53675">
        <ele>266.7</ele>
        <time>2016-06-08T12:57:07Z</time>
      </trkpt>
      <trkpt lat="43.3182" lon="5.53699">
        <ele>268</ele>
        <time>2016-06-08T12:57:21Z</time>
      </trkpt>
      <trkpt lat="43.31821" lon="5.53722">
        <ele>265.8</ele>
        <time>2016-06-08T12:57:36Z</time>
      </trkpt>
      <trkpt lat="43.31821" lon="5.53724">
        <ele>265.5</ele>
        <time>2016-06-08T12:57:37Z</time>
      </trkpt>
      <trkpt lat="43.31797" lon="5.53726">
        <ele>264.6</ele>
        <time>2016-06-08T12:58:14Z</time>
      </trkpt>
      <trkpt lat="43.31783" lon="5.53711">
        <ele>262</ele>
        <time>2016-06-08T12:58:30Z</time>
      </trkpt>
      <trkpt lat="43.31767" lon="5.53703">
        <ele>260.5</ele>
        <time>2016-06-08T12:58:45Z</time>
      </trkpt>
      <trkpt lat="43.31766" lon="5.53703">
        <ele>260.5</ele>
        <time>2016-06-08T12:58:46Z</time>
      </trkpt>
      <trkpt lat="43.31733" lon="5.53709">
        <ele>257.7</ele>
        <time>2016-06-08T12:59:15Z</time>
      </trkpt>
      <trkpt lat="43.31722" lon="5.53727">
        <ele>256.5</ele>
        <time>2016-06-08T12:59:32Z</time>
      </trkpt>
      <trkpt lat="43.31716" lon="5.53749">
        <ele>254.6</ele>
        <time>2016-06-08T12:59:45Z</time>
      </trkpt>
      <trkpt lat="43.31708" lon="5.53771">
        <ele>255.1</ele>
        <time>2016-06-08T12:59:57Z</time>
      </trkpt>
      <trkpt lat="43.31708" lon="5.53772">
        <ele>255</ele>
        <time>2016-06-08T12:59:58Z</time>
      </trkpt>
      <trkpt lat="43.31683" lon="5.53802">
        <ele>250.3</ele>
        <time>2016-06-08T13:00:30Z</time>
      </trkpt>
      <trkpt lat="43.31674" lon="5.53823">
        <ele>246.1</ele>
        <time>2016-06-08T13:00:48Z</time>
      </trkpt>
      <trkpt lat="43.31664" lon="5.53842">
        <ele>240.5</ele>
        <time>2016-06-08T13:01:05Z</time>
      </trkpt>
      <trkpt lat="43.31662" lon="5.53844">
        <ele>240.5</ele>
        <time>2016-06-08T13:01:06Z</time>
      </trkpt>
      <trkpt lat="43.31638" lon="5.53874">
        <ele>238.5</ele>
        <time>2016-06-08T13:01:32Z</time>
      </trkpt>
      <trkpt lat="43.31627" lon="5.53894">
        <ele>243.1</ele>
        <time>2016-06-08T13:02:04Z</time>
      </trkpt>
      <trkpt lat="43.31612" lon="5.53905">
        <ele>239.3</ele>
        <time>2016-06-08T13:02:21Z</time>
      </trkpt>
      <trkpt lat="43.31611" lon="5.53906">
        <ele>238.6</ele>
        <time>2016-06-08T13:02:22Z</time>
      </trkpt>
      <trkpt lat="43.31591" lon="5.53944">
        <ele>222.3</ele>
        <time>2016-06-08T13:02:54Z</time>
      </trkpt>
      <trkpt lat="43.31588" lon="5.53967">
        <ele>224.8</ele>
        <time>2016-06-08T13:03:08Z</time>
      </trkpt>
      <trkpt lat="43.31588" lon="5.53991">
        <ele>222.1</ele>
        <time>2016-06-08T13:03:23Z</time>
      </trkpt>
      <trkpt lat="43.31588" lon="5.53993">
        <ele>223.5</ele>
        <time>2016-06-08T13:03:24Z</time>
      </trkpt>
      <trkpt lat="43.3158" lon="5.54037">
        <ele>230.6</ele>
        <time>2016-06-08T13:03:51Z</time>
      </trkpt>
      <trkpt lat="43.31575" lon="5.54059">
        <ele>233</ele>
        <time>2016-06-08T13:04:07Z</time>
      </trkpt>
      <trkpt lat="43.31563" lon="5.54076">
        <ele>235.1</ele>
        <time>2016-06-08T13:04:19Z</time>
      </trkpt>
      <trkpt lat="43.3155" lon="5.54094">
        <ele>234.8</ele>
        <time>2016-06-08T13:04:33Z</time>
      </trkpt>
      <trkpt lat="43.3155" lon="5.54095">
        <ele>234.8</ele>
        <time>2016-06-08T13:04:34Z</time>
      </trkpt>
      <trkpt lat="43.31523" lon="5.54119">
        <ele>226.6</ele>
        <time>2016-06-08T13:05:01Z</time>
      </trkpt>
      <trkpt lat="43.31507" lon="5.5413">
        <ele>225</ele>
        <time>2016-06-08T13:05:12Z</time>
      </trkpt>
      <trkpt lat="43.31497" lon="5.54151">
        <ele>224.8</ele>
        <time>2016-06-08T13:05:28Z</time>
      </trkpt>
      <trkpt lat="43.31486" lon="5.54168">
        <ele>231.6</ele>
        <time>2016-06-08T13:05:45Z</time>
      </trkpt>
      <trkpt lat="43.31485" lon="5.5417">
        <ele>232.8</ele>
        <time>2016-06-08T13:05:46Z</time>
      </trkpt>
      <trkpt lat="43.31459" lon="5.54198">
        <ele>227.3</ele>
        <time>2016-06-08T13:06:13Z</time>
      </trkpt>
      <trkpt lat="43.31445" lon="5.54211">
        <ele>227</ele>
        <time>2016-06-08T13:06:36Z</time>
      </trkpt>
      <trkpt lat="43.31433" lon="5.54228">
        <ele>230</ele>
        <time>2016-06-08T13:08:17Z</time>
      </trkpt>
      <trkpt lat="43.31432" lon="5.54229">
        <ele>229.8</ele>
        <time>2016-06-08T13:08:18Z</time>
      </trkpt>
      <trkpt lat="43.31403" lon="5.54247">
        <ele>220.8</ele>
        <time>2016-06-08T13:08:50Z</time>
      </trkpt>
      <trkpt lat="43.31394" lon="5.54267">
        <ele>217.5</ele>
        <time>2016-06-08T13:09:05Z</time>
      </trkpt>
      <trkpt lat="43.31384" lon="5.54286">
        <ele>217.3</ele>
        <time>2016-06-08T13:09:19Z</time>
      </trkpt>
      <trkpt lat="43.31383" lon="5.54288">
        <ele>217.6</ele>
        <time>2016-06-08T13:09:20Z</time>
      </trkpt>
      <trkpt lat="43.31384" lon="5.54333">
        <ele>214.5</ele>
        <time>2016-06-08T13:09:50Z</time>
      </trkpt>
      <trkpt lat="43.3138" lon="5.54356">
        <ele>208.6</ele>
        <time>2016-06-08T13:10:05Z</time>
      </trkpt>
      <trkpt lat="43.31374" lon="5.54379">
        <ele>205.3</ele>
        <time>2016-06-08T13:10:20Z</time>
      </trkpt>
      <trkpt lat="43.31374" lon="5.5438">
        <ele>205.1</ele>
        <time>2016-06-08T13:10:21Z</time>
      </trkpt>
      <trkpt lat="43.31344" lon="5.54386">
        <ele>206.1</ele>
        <time>2016-06-08T13:10:51Z</time>
      </trkpt>
      <trkpt lat="43.31328" lon="5.54377">
        <ele>207.3</ele>
        <time>2016-06-08T13:11:04Z</time>
      </trkpt>
      <trkpt lat="43.3131" lon="5.54379">
        <ele>212.6</ele>
        <time>2016-06-08T13:11:17Z</time>
      </trkpt>
      <trkpt lat="43.31298" lon="5.54397">
        <ele>213.3</ele>
        <time>2016-06-08T13:11:27Z</time>
      </trkpt>
      <trkpt lat="43.31298" lon="5.54399">
        <ele>213.3</ele>
        <time>2016-06-08T13:11:28Z</time>
      </trkpt>
      <trkpt lat="43.31279" lon="5.54437">
        <ele>203.3</ele>
        <time>2016-06-08T13:11:59Z</time>
      </trkpt>
      <trkpt lat="43.31268" lon="5.54455">
        <ele>205.1</ele>
        <time>2016-06-08T13:12:12Z</time>
      </trkpt>
      <trkpt lat="43.31257" lon="5.54475">
        <ele>210.6</ele>
        <time>2016-06-08T13:12:25Z</time>
      </trkpt>
      <trkpt lat="43.31245" lon="5.54493">
        <ele>211.3</ele>
        <time>2016-06-08T13:12:38Z</time>
      </trkpt>
      <trkpt lat="43.31244" lon="5.54494">
        <ele>211.1</ele>
        <time>2016-06-08T13:12:39Z</time>
      </trkpt>
      <trkpt lat="43.31226" lon="5.54532">
        <ele>207.3</ele>
        <time>2016-06-08T13:13:05Z</time>
      </trkpt>
      <trkpt lat="43.31219" lon="5.54554">
        <ele>204.3</ele>
        <time>2016-06-08T13:13:19Z</time>
      </trkpt>
      <trkpt lat="43.31215" lon="5.54576">
        <ele>202.8</ele>
        <time>2016-06-08T13:13:32Z</time>
      </trkpt>
      <trkpt lat="43.31212" lon="5.546">
        <ele>205.8</ele>
        <time>2016-06-08T13:13:45Z</time>
      </trkpt>
      <trkpt lat="43.31212" lon="5.54602">
        <ele>206</ele>
        <time>2016-06-08T13:13:46Z</time>
      </trkpt>
      <trkpt lat="43.31224" lon="5.54644">
        <ele>204.1</ele>
        <time>2016-06-08T13:14:09Z</time>
      </trkpt>
      <trkpt lat="43.31225" lon="5.54668">
        <ele>202.1</ele>
        <time>2016-06-08T13:14:26Z</time>
      </trkpt>
      <trkpt lat="43.31215" lon="5.54687">
        <ele>204.6</ele>
        <time>2016-06-08T13:14:51Z</time>
      </trkpt>
      <trkpt lat="43.31215" lon="5.54689">
        <ele>204.8</ele>
        <time>2016-06-08T13:14:52Z</time>
      </trkpt>
      <trkpt lat="43.31188" lon="5.54715">
        <ele>206.6</ele>
        <time>2016-06-08T13:15:21Z</time>
      </trkpt>
      <trkpt lat="43.31173" lon="5.54727">
        <ele>207.8</ele>
        <time>2016-06-08T13:15:34Z</time>
      </trkpt>
      <trkpt lat="43.31158" lon="5.54737">
        <ele>203.8</ele>
        <time>2016-06-08T13:15:46Z</time>
      </trkpt>
      <trkpt lat="43.31142" lon="5.5475">
        <ele>204.8</ele>
        <time>2016-06-08T13:15:59Z</time>
      </trkpt>
      <trkpt lat="43.31141" lon="5.54752">
        <ele>205.5</ele>
        <time>2016-06-08T13:16:00Z</time>
      </trkpt>
      <trkpt lat="43.31111" lon="5.54767">
        <ele>203.1</ele>
        <time>2016-06-08T13:16:24Z</time>
      </trkpt>
      <trkpt lat="43.31093" lon="5.54766">
        <ele>199.5</ele>
        <time>2016-06-08T13:16:38Z</time>
      </trkpt>
      <trkpt lat="43.31076" lon="5.54759">
        <ele>197.8</ele>
        <time>2016-06-08T13:16:58Z</time>
      </trkpt>
      <trkpt lat="43.31061" lon="5.54746">
        <ele>199</ele>
        <time>2016-06-08T13:17:15Z</time>
      </trkpt>
      <trkpt lat="43.31059" lon="5.54745">
        <ele>200.5</ele>
        <time>2016-06-08T13:17:16Z</time>
      </trkpt>
      <trkpt lat="43.3103" lon="5.54726">
        <ele>199.8</ele>
        <time>2016-06-08T13:17:46Z</time>
      </trkpt>
      <trkpt lat="43.31013" lon="5.54723">
        <ele>207.5</ele>
        <time>2016-06-08T13:17:59Z</time>
      </trkpt>
      <trkpt lat="43.30995" lon="5.54726">
        <ele>209.1</ele>
        <time>2016-06-08T13:18:14Z</time>
      </trkpt>
      <trkpt lat="43.3098" lon="5.54716">
        <ele>209.8</ele>
        <time>2016-06-08T13:18:31Z</time>
      </trkpt>
      <trkpt lat="43.30979" lon="5.54715">
        <ele>209.6</ele>
        <time>2016-06-08T13:18:32Z</time>
      </trkpt>
      <trkpt lat="43.30963" lon="5.54675">
        <ele>197.6</ele>
        <time>2016-06-08T13:19:09Z</time>
      </trkpt>
      <trkpt lat="43.30952" lon="5.54658">
        <ele>199.3</ele>
        <time>2016-06-08T13:19:23Z</time>
      </trkpt>
      <trkpt lat="43.30938" lon="5.54645">
        <ele>204.6</ele>
        <time>2016-06-08T13:19:36Z</time>
      </trkpt>
      <trkpt lat="43.30936" lon="5.54644">
        <ele>206.3</ele>
        <time>2016-06-08T13:19:37Z</time>
      </trkpt>
    </trkseg>
  </trk>
</gpx>